Time;durP1;ratioP1;P1;durP2;ratioP2;P2;SDS_P1;SDS_P2;PMS_P1;PMS_P2;Temp;Humidity;BMP_temperature;BMP_pressure;BME280_temperature;BME280_humidity;BME280_pressure;Samples;Min_cycle;Max_cycle;Signal;HPM_P1;HPM_P2
2022/04/15 00:00:36;;;;;;;10.80;9.90;;;;;;;8.70;100.00;101097.00;5072309;28;20213;-71
2022/04/15 00:03:05;;;;;;;10.93;9.90;;;;;;;8.70;100.00;101103.28;5070852;28;20195;-71
2022/04/15 00:05:36;;;;;;;11.67;10.53;;;;;;;8.71;100.00;101104.91;5071139;28;20178;-71
2022/04/15 00:08:11;;;;;;;14.47;11.80;;;;;;;8.69;100.00;101107.09;5072150;28;20185;-73
2022/04/15 00:10:39;;;;;;;22.70;12.80;;;;;;;8.62;100.00;101107.41;5072272;28;20177;-73
2022/04/15 00:13:06;;;;;;;14.47;11.83;;;;;;;8.54;100.00;101108.00;5072440;28;20183;-73
2022/04/15 00:15:33;;;;;;;12.83;11.53;;;;;;;8.62;100.00;101096.50;5072152;28;20171;-74
2022/04/15 00:17:59;;;;;;;13.93;12.63;;;;;;;8.65;100.00;101101.38;5071701;28;20175;-74
2022/04/15 00:20:26;;;;;;;13.80;12.47;;;;;;;8.68;100.00;101100.03;5072041;28;20170;-74
2022/04/15 00:22:53;;;;;;;16.93;14.20;;;;;;;8.66;100.00;101099.47;5070609;28;20206;-73
2022/04/15 00:25:18;;;;;;;14.73;12.80;;;;;;;8.67;100.00;101103.81;5071869;28;20182;-73
2022/04/15 00:27:44;;;;;;;18.23;14.73;;;;;;;8.65;100.00;101097.84;5070323;28;20197;-74
2022/04/15 00:30:10;;;;;;;17.40;14.30;;;;;;;8.68;100.00;101099.19;5071800;28;20257;-74
2022/04/15 00:32:35;;;;;;;14.50;13.20;;;;;;;8.75;100.00;101105.13;5071649;28;20179;-74
2022/04/15 00:35:02;;;;;;;17.33;15.40;;;;;;;8.69;100.00;101100.84;5071703;28;20178;-74
2022/04/15 00:37:27;;;;;;;17.57;14.10;;;;;;;8.69;100.00;101096.19;5070071;28;20527;-75
2022/04/15 00:39:53;;;;;;;21.20;15.57;;;;;;;8.67;100.00;101101.09;5070082;28;20280;-73
2022/04/15 00:42:20;;;;;;;21.07;14.17;;;;;;;8.68;100.00;101112.81;5071490;28;20174;-74
2022/04/15 00:44:45;;;;;;;15.97;14.30;;;;;;;8.62;100.00;101101.94;5071848;28;20565;-74
2022/04/15 00:47:21;;;;;;;18.27;14.73;;;;;;;8.69;100.00;101098.91;5071161;28;20239;-71
2022/04/15 00:49:46;;;;;;;16.40;14.73;;;;;;;8.46;100.00;101105.84;5071441;28;20178;-71
2022/04/15 00:52:13;;;;;;;14.83;13.57;;;;;;;8.61;100.00;101110.41;5069987;28;20239;-73
2022/04/15 00:54:41;;;;;;;16.57;14.97;;;;;;;8.58;100.00;101111.78;5071181;28;20174;-71
2022/04/15 00:57:09;;;;;;;13.90;12.07;;;;;;;8.52;100.00;101121.06;5070958;28;20182;-71
2022/04/15 00:59:38;;;;;;;18.33;13.33;;;;;;;8.22;100.00;101104.84;5071079;28;20178;-71
2022/04/15 01:02:04;;;;;;;18.27;12.80;;;;;;;8.39;100.00;101121.72;5071524;28;20179;-71
2022/04/15 01:04:31;;;;;;;15.13;13.53;;;;;;;8.49;100.00;101120.81;5071144;28;20210;-74
2022/04/15 01:07:02;;;;;;;16.53;14.93;;;;;;;8.49;100.00;101118.09;5069665;28;20174;-71
2022/04/15 01:09:32;;;;;;;17.80;13.40;;;;;;;8.60;100.00;101119.66;5069767;28;20197;-71
2022/04/15 01:11:58;;;;;;;15.90;13.63;;;;;;;8.65;100.00;101122.34;5070962;28;20288;-72
2022/04/15 01:14:27;;;;;;;18.90;15.60;;;;;;;8.62;100.00;101122.91;5070918;28;20691;-71
2022/04/15 01:16:52;;;;;;;16.77;15.07;;;;;;;8.60;100.00;101120.47;5069418;28;20232;-73
2022/04/15 01:19:17;;;;;;;18.77;14.53;;;;;;;8.62;100.00;101120.19;5070752;28;20171;-72
2022/04/15 01:21:45;;;;;;;21.33;13.10;;;;;;;8.53;100.00;101124.59;5069469;28;20181;-71
2022/04/15 01:24:10;;;;;;;24.40;15.10;;;;;;;8.52;100.00;101115.63;5070636;28;20613;-71
2022/04/15 01:26:38;;;;;;;17.53;14.27;;;;;;;8.56;100.00;101124.88;5070629;28;20232;-71
2022/04/15 01:29:04;;;;;;;17.43;15.73;;;;;;;8.31;100.00;101116.81;5070530;28;20705;-72
2022/04/15 01:31:31;;;;;;;21.60;16.40;;;;;;;8.22;100.00;101124.72;5070587;28;20261;-72
2022/04/15 01:33:58;;;;;;;18.53;16.00;;;;;;;8.23;100.00;101120.91;5070542;28;20236;-71
2022/04/15 01:36:23;;;;;;;18.77;16.37;;;;;;;8.19;100.00;101121.75;5069368;28;20257;-71
2022/04/15 01:38:49;;;;;;;17.83;16.00;;;;;;;8.16;100.00;101119.59;5068316;28;20266;-71
2022/04/15 01:41:14;;;;;;;21.97;16.80;;;;;;;8.22;100.00;101123.91;5070508;28;20186;-71
2022/04/15 01:43:39;;;;;;;21.97;15.87;;;;;;;8.10;100.00;101121.53;5069122;28;20202;-72
2022/04/15 01:46:05;;;;;;;20.83;16.43;;;;;;;8.10;100.00;101129.69;5070556;28;20170;-71
2022/04/15 01:48:30;;;;;;;22.93;16.33;;;;;;;7.94;100.00;101122.66;5070249;28;20170;-72
2022/04/15 01:50:55;;;;;;;17.33;15.73;;;;;;;7.99;100.00;101130.81;5070329;28;20180;-71
2022/04/15 01:53:22;;;;;;;29.50;17.23;;;;;;;7.91;100.00;101134.09;5070308;28;20182;-72
2022/04/15 01:55:48;;;;;;;17.63;14.83;;;;;;;8.08;100.00;101134.56;5069049;28;20170;-72
2022/04/15 01:58:13;;;;;;;23.97;16.03;;;;;;;8.15;100.00;101139.72;5068839;28;20257;-71
2022/04/15 02:00:38;;;;;;;17.77;14.83;;;;;;;8.13;100.00;101136.47;5070381;28;20257;-72
2022/04/15 02:03:04;;;;;;;18.40;14.60;;;;;;;8.22;100.00;101141.06;5069142;28;20202;-72
2022/04/15 02:05:30;;;;;;;17.00;14.23;;;;;;;8.29;100.00;101141.59;5069196;28;20695;-71
2022/04/15 02:07:55;;;;;;;19.80;14.33;;;;;;;8.32;100.00;101142.94;5068684;28;20175;-71
2022/04/15 02:10:21;;;;;;;13.53;12.37;;;;;;;8.27;100.00;101142.97;5071914;28;20174;-72
2022/04/15 02:12:46;;;;;;;14.27;12.23;;;;;;;8.24;100.00;101143.50;5075593;28;20647;-71
2022/04/15 02:15:12;;;;;;;12.40;11.33;;;;;;;8.22;100.00;101151.94;5075524;28;20212;-71
2022/04/15 02:17:37;;;;;;;13.33;12.13;;;;;;;8.23;100.00;101148.13;5076604;28;20184;-71
2022/04/15 02:20:04;;;;;;;12.30;11.00;;;;;;;8.18;100.00;101148.16;5075455;28;20174;-71
2022/04/15 02:22:29;;;;;;;22.47;12.07;;;;;;;8.16;100.00;101146.81;5075554;28;20231;-71
2022/04/15 02:24:55;;;;;;;16.13;11.93;;;;;;;8.12;100.00;101153.91;5076718;28;20206;-74
2022/04/15 02:27:20;;;;;;;12.77;11.63;;;;;;;8.05;100.00;101146.84;5075218;28;20178;-71
2022/04/15 02:29:46;;;;;;;12.43;11.13;;;;;;;7.98;100.00;101146.31;5076682;28;20202;-71
2022/04/15 02:32:11;;;;;;;13.67;10.90;;;;;;;7.95;100.00;101148.75;5076641;28;20531;-73
2022/04/15 02:34:36;;;;;;;13.50;12.10;;;;;;;7.95;100.00;101148.75;5076659;28;20197;-71
2022/04/15 02:37:02;;;;;;;12.70;11.40;;;;;;;7.92;100.00;101147.41;5076317;28;20231;-71
2022/04/15 02:39:28;;;;;;;13.17;11.23;;;;;;;7.86;100.00;101147.72;5074704;28;20194;-71
2022/04/15 02:41:55;;;;;;;17.37;13.93;;;;;;;7.84;100.00;101145.28;5076661;28;20261;-71
2022/04/15 02:44:21;;;;;;;9.03;7.20;;;;;;;7.84;100.00;101147.19;5074819;28;20233;-71
2022/04/15 02:46:46;;;;;;;16.93;10.80;;;;;;;7.76;100.00;101156.69;5070879;28;20665;-71
2022/04/15 02:49:12;;;;;;;22.03;11.70;;;;;;;7.73;100.00;101155.34;5076743;28;20549;-70
2022/04/15 02:51:38;;;;;;;5.70;5.17;;;;;;;7.72;100.00;101152.91;5075579;28;20289;-71
2022/04/15 02:54:03;;;;;;;3.77;3.10;;;;;;;7.62;100.00;101158.34;5076948;28;20178;-71
2022/04/15 02:56:28;;;;;;;5.83;5.33;;;;;;;7.58;100.00;101151.84;5075721;28;20540;-74
2022/04/15 02:58:54;;;;;;;9.10;5.87;;;;;;;7.57;100.00;101152.94;5077217;28;20208;-74
2022/04/15 03:01:19;;;;;;;6.77;4.67;;;;;;;7.49;100.00;101159.72;5075556;28;20186;-74
2022/04/15 03:03:44;;;;;;;4.90;4.50;;;;;;;7.46;100.00;101160.28;5076924;28;20198;-73
2022/04/15 03:06:10;;;;;;;5.07;4.57;;;;;;;7.45;100.00;101164.91;5076634;28;20192;-75
2022/04/15 03:08:35;;;;;;;4.27;3.87;;;;;;;7.42;100.00;101159.19;5076773;28;20171;-74
2022/04/15 03:11:01;;;;;;;5.60;4.47;;;;;;;7.46;100.00;101161.09;5075424;28;20190;-72
2022/04/15 03:13:27;;;;;;;4.37;3.97;;;;;;;7.45;100.00;101162.19;5076812;28;20179;-74
2022/04/15 03:15:53;;;;;;;4.10;3.80;;;;;;;7.44;100.00;101162.47;5075465;28;20182;-73
2022/04/15 03:18:18;;;;;;;4.50;4.10;;;;;;;7.44;100.00;101162.47;5076775;28;20175;-74
2022/04/15 03:20:43;;;;;;;4.80;4.40;;;;;;;7.47;100.00;101161.91;5076610;28;20248;-76
2022/04/15 03:23:09;;;;;;;6.10;4.97;;;;;;;7.46;100.00;101165.72;5074245;28;20247;-74
2022/04/15 03:25:34;;;;;;;4.37;3.97;;;;;;;7.43;100.00;101172.50;5073634;28;20721;-75
2022/04/15 03:28:00;;;;;;;4.73;4.33;;;;;;;7.43;100.00;101171.69;5073396;28;20229;-75
2022/04/15 03:30:26;;;;;;;5.20;4.23;;;;;;;7.44;100.00;101174.16;5072306;28;20186;-74
2022/04/15 03:32:53;;;;;;;5.53;5.03;;;;;;;7.43;100.00;101168.97;5073124;28;20513;-73
2022/04/15 03:35:20;;;;;;;10.27;4.87;;;;;;;7.43;100.00;101175.22;5071603;28;20691;-75
2022/04/15 03:37:50;;;;;;;4.50;4.10;;;;;;;7.40;100.00;101174.97;5072639;28;20171;-73
2022/04/15 03:40:16;;;;;;;5.23;3.83;;;;;;;7.40;100.00;101174.97;5072545;28;20183;-73
2022/04/15 03:42:50;;;;;;;5.63;4.83;;;;;;;7.41;100.00;101174.69;5073438;28;20186;-73
2022/04/15 03:45:19;;;;;;;5.93;4.47;;;;;;;7.42;100.00;101175.50;5074900;28;20239;-73
2022/04/15 03:47:47;;;;;;;5.50;4.57;;;;;;;7.41;100.00;101177.41;5072709;28;20377;-73
2022/04/15 03:50:13;;;;;;;4.90;4.50;;;;;;;7.41;100.00;101190.19;5072952;28;20181;-74
2022/04/15 03:52:44;;;;;;;4.47;4.07;;;;;;;7.37;100.00;101181.75;5073045;28;20190;-74
2022/04/15 03:55:10;;;;;;;5.37;4.87;;;;;;;7.38;100.00;101188.03;5071554;28;20182;-73
2022/04/15 03:57:38;;;;;;;5.27;4.77;;;;;;;7.39;100.00;101181.50;5072758;28;20232;-73
2022/04/15 04:00:12;;;;;;;5.50;5.00;;;;;;;7.40;100.00;101191.28;5072976;28;20629;-73
2022/04/15 04:02:38;;;;;;;5.75;4.20;;;;;;;7.37;100.00;101189.91;5071569;28;20194;-74
2022/04/15 04:05:04;;;;;;;5.53;4.17;;;;;;;7.35;100.00;101183.09;5072920;28;20245;-74
2022/04/15 04:07:31;;;;;;;4.93;4.47;;;;;;;7.40;100.00;101183.94;5072577;28;20216;-73
2022/04/15 04:09:56;;;;;;;6.07;5.47;;;;;;;7.38;100.00;101186.13;5071451;28;20181;-74
2022/04/15 04:12:22;;;;;;;5.43;4.93;;;;;;;7.45;100.00;101194.00;5072762;28;20166;-74
2022/04/15 04:14:47;;;;;;;4.60;4.20;;;;;;;7.45;100.00;101189.38;5072963;28;20181;-73
2022/04/15 04:17:12;;;;;;;6.47;5.60;;;;;;;7.45;100.00;101183.13;5071059;28;20166;-74
2022/04/15 04:19:39;;;;;;;5.80;5.20;;;;;;;7.46;100.00;101185.56;5071120;28;20540;-74
2022/04/15 04:22:04;;;;;;;7.60;5.70;;;;;;;7.53;100.00;101193.47;5071184;28;20236;-73
2022/04/15 04:24:30;;;;;;;7.03;6.43;;;;;;;7.53;100.00;101198.91;5071150;28;20210;-74
2022/04/15 04:26:55;;;;;;;8.80;8.00;;;;;;;7.46;100.00;101196.44;5072269;28;20171;-71
2022/04/15 04:29:20;;;;;;;9.67;8.80;;;;;;;7.41;100.00;101201.06;5072209;28;20171;-74
2022/04/15 04:31:46;;;;;;;11.67;10.47;;;;;;;7.34;100.00;101201.31;5072334;28;20687;-74
2022/04/15 04:34:11;;;;;;;11.47;10.27;;;;;;;7.42;100.00;101208.13;5071769;28;20171;-73
2022/04/15 04:36:36;;;;;;;10.73;9.83;;;;;;;7.44;100.00;101205.94;5072224;28;20182;-73
2022/04/15 04:39:06;;;;;;;12.07;9.87;;;;;;;7.41;100.00;101207.31;5070567;28;20201;-73
2022/04/15 04:41:31;;;;;;;10.00;9.13;;;;;;;7.38;100.00;101212.50;5072162;28;20623;-74
2022/04/15 04:43:56;;;;;;;9.73;8.83;;;;;;;7.45;100.00;101213.84;5072047;28;20243;-73
2022/04/15 04:46:22;;;;;;;10.23;9.33;;;;;;;7.37;100.00;101224.41;5072025;28;20566;-73
2022/04/15 04:48:47;;;;;;;10.57;9.57;;;;;;;7.44;100.00;101228.50;5071758;28;20175;-73
2022/04/15 04:51:12;;;;;;;10.33;9.17;;;;;;;7.52;100.00;101231.78;5070548;28;20177;-74
2022/04/15 04:53:38;;;;;;;8.77;7.97;;;;;;;7.49;100.00;101240.47;5071914;28;20173;-72
2022/04/15 04:56:04;;;;;;;6.50;5.90;;;;;;;7.38;100.00;101236.94;5071830;28;20525;-72
2022/04/15 04:58:29;;;;;;;7.93;7.23;;;;;;;7.35;100.00;101241.00;5071636;28;20255;-72
2022/04/15 05:00:54;;;;;;;6.77;6.13;;;;;;;7.38;100.00;101243.22;5071682;28;20178;-72
2022/04/15 05:03:20;;;;;;;9.30;7.33;;;;;;;7.32;100.00;101249.69;5070130;28;20206;-71
2022/04/15 05:05:45;;;;;;;5.67;5.17;;;;;;;7.29;100.00;101260.31;5071639;28;20732;-72
2022/04/15 05:08:10;;;;;;;4.93;4.53;;;;;;;7.32;100.00;101251.59;5070138;28;20194;-72
2022/04/15 05:10:36;;;;;;;5.70;5.07;;;;;;;7.28;100.00;101251.34;5071510;28;20722;-74
2022/04/15 05:13:01;;;;;;;5.80;5.20;;;;;;;7.31;100.00;101256.22;5070461;28;20609;-72
2022/04/15 05:15:26;;;;;;;4.27;3.87;;;;;;;7.27;100.00;101255.16;5071422;28;20583;-78
2022/04/15 05:17:52;;;;;;;5.30;4.80;;;;;;;7.27;100.00;101259.75;5069979;28;20175;-72
2022/04/15 05:20:17;;;;;;;5.07;4.67;;;;;;;7.25;100.00;101251.88;5071527;28;20227;-74
2022/04/15 05:22:44;;;;;;;4.50;4.10;;;;;;;7.15;100.00;101249.94;5071161;28;20257;-72
2022/04/15 05:25:10;;;;;;;5.03;4.60;;;;;;;7.19;100.00;101268.44;5070974;28;20182;-72
2022/04/15 05:27:36;;;;;;;5.30;4.80;;;;;;;7.23;100.00;101261.38;5068745;28;20687;-73
2022/04/15 05:30:01;;;;;;;5.13;4.67;;;;;;;7.14;100.00;101261.91;5070532;28;20170;-72
2022/04/15 05:32:26;;;;;;;3.97;3.60;;;;;;;7.13;100.00;101265.72;5069223;28;20181;-72
2022/04/15 05:34:52;;;;;;;6.10;5.57;;;;;;;7.13;100.00;101265.72;5069353;28;20186;-72
2022/04/15 05:37:17;;;;;;;4.03;3.63;;;;;;;7.14;100.00;101269.25;5066314;28;20673;-72
2022/04/15 05:39:42;;;;;;;5.60;5.10;;;;;;;7.08;100.00;101273.84;5070441;28;20197;-71
2022/04/15 05:42:08;;;;;;;4.83;4.43;;;;;;;7.05;100.00;101274.38;5069560;28;20270;-72
2022/04/15 05:44:33;;;;;;;4.50;3.83;;;;;;;7.03;100.00;101273.81;5070690;28;20340;-71
2022/04/15 05:46:58;;;;;;;6.07;5.10;;;;;;;7.05;100.00;101271.66;5070313;28;20252;-72
2022/04/15 05:49:25;;;;;;;5.27;4.87;;;;;;;7.04;100.00;101277.34;5070888;28;20189;-72
2022/04/15 05:51:50;;;;;;;6.23;5.20;;;;;;;7.09;100.00;101280.13;5071000;28;20167;-71
2022/04/15 05:54:16;;;;;;;5.73;5.23;;;;;;;7.08;100.00;101286.59;5070865;28;20174;-72
2022/04/15 05:56:42;;;;;;;5.70;5.20;;;;;;;7.12;100.00;101291.25;5070901;28;20175;-71
2022/04/15 05:59:07;;;;;;;5.67;5.07;;;;;;;7.09;100.00;101293.69;5070727;28;20227;-72
2022/04/15 06:01:33;;;;;;;5.10;4.70;;;;;;;7.05;100.00;101298.00;5070685;28;20201;-72
2022/04/15 06:03:59;;;;;;;6.30;4.53;;;;;;;7.03;100.00;101300.19;5070791;28;20677;-72
2022/04/15 06:06:24;;;;;;;6.00;5.20;;;;;;;6.99;100.00;101299.91;5069543;28;20287;-72
2022/04/15 06:08:49;;;;;;;6.40;5.80;;;;;;;6.96;100.00;101305.88;5070611;28;20175;-72
2022/04/15 06:11:15;;;;;;;5.40;4.90;;;;;;;6.98;100.00;101306.41;5070728;28;20640;-72
2022/04/15 06:13:47;;;;;;;5.47;4.37;;;;;;;6.99;100.00;101308.06;5070693;28;20181;-72
2022/04/15 06:16:15;;;;;;;5.87;5.27;;;;;;;7.00;100.00;101312.41;5069478;28;20212;-72
2022/04/15 06:18:40;;;;;;;5.40;4.90;;;;;;;7.00;100.00;101306.97;5069131;28;20186;-71
2022/04/15 06:21:06;;;;;;;10.23;5.37;;;;;;;7.02;100.00;101315.66;5069322;28;20685;-72
2022/04/15 06:23:31;;;;;;;5.93;5.37;;;;;;;6.96;100.00;101314.03;5070573;28;20206;-72
2022/04/15 06:25:57;;;;;;;5.60;5.10;;;;;;;6.94;100.00;101318.88;5070592;28;20170;-72
2022/04/15 06:28:22;;;;;;;4.17;3.87;;;;;;;6.96;100.00;101324.88;5070239;28;20177;-71
2022/04/15 06:30:51;;;;;;;3.87;3.47;;;;;;;6.99;100.00;101323.53;5070392;28;20254;-72
2022/04/15 06:33:20;;;;;;;4.80;4.40;;;;;;;6.94;100.00;101332.47;5070576;28;20245;-72
2022/04/15 06:35:46;;;;;;;5.43;4.93;;;;;;;6.96;100.00;101335.75;5070531;28;20175;-71
2022/04/15 06:38:11;;;;;;;7.13;5.87;;;;;;;6.96;100.00;101332.22;5070599;28;20171;-73
2022/04/15 06:40:38;;;;;;;7.37;6.67;;;;;;;6.98;100.00;101332.78;5068729;28;20190;-72
2022/04/15 06:43:04;;;;;;;7.00;6.33;;;;;;;7.03;100.00;101324.63;5070272;28;20316;-73
2022/04/15 06:45:30;;;;;;;10.13;7.03;;;;;;;7.02;100.00;101323.81;5069093;28;20178;-73
2022/04/15 06:47:55;;;;;;;8.53;7.73;;;;;;;6.97;100.00;101325.72;5068985;28;20167;-71
2022/04/15 06:50:20;;;;;;;9.60;8.57;;;;;;;6.97;100.00;101334.66;5069084;28;20628;-72
2022/04/15 06:52:46;;;;;;;10.53;9.53;;;;;;;7.09;100.00;101332.56;5069034;28;20685;-72
2022/04/15 06:55:11;;;;;;;9.53;8.70;;;;;;;7.19;100.00;101337.19;5070534;28;20171;-72
2022/04/15 06:57:37;;;;;;;10.60;9.63;;;;;;;7.27;100.00;101338.59;5072494;28;20206;-71
2022/04/15 07:00:04;;;;;;;4.87;4.40;;;;;;;7.33;100.00;101334.78;5074026;28;20240;-72
2022/04/15 07:02:29;;;;;;;7.23;6.23;;;;;;;7.26;100.00;101334.22;5073790;28;20187;-72
2022/04/15 07:04:55;;;;;;;5.30;4.63;;;;;;;7.22;100.00;101317.63;5073822;28;20539;-72
2022/04/15 07:07:20;;;;;;;9.53;7.33;;;;;;;7.25;100.00;101327.16;5073861;28;20175;-71
2022/04/15 07:09:45;;;;;;;8.13;4.77;;;;;;;7.29;100.00;101339.94;5073877;28;20206;-73
2022/04/15 07:12:11;;;;;;;9.53;8.03;;;;;;;7.33;100.00;101343.75;5073865;28;20232;-73
2022/04/15 07:14:36;;;;;;;4.40;4.00;;;;;;;7.43;100.00;101351.13;5072314;28;20174;-72
2022/04/15 07:17:02;;;;;;;9.43;8.40;;;;;;;7.46;100.00;101345.16;5072230;28;20646;-72
2022/04/15 07:19:27;;;;;;;10.90;8.23;;;;;;;7.54;100.00;101357.41;5073668;28;20654;-73
2022/04/15 07:21:53;;;;;;;8.70;7.80;;;;;;;7.53;100.00;101355.78;5073557;28;20274;-74
2022/04/15 07:24:20;;;;;;;4.77;4.10;;;;;;;7.66;100.00;101356.06;5073499;28;20210;-74
2022/04/15 07:26:45;;;;;;;8.10;7.43;;;;;;;7.75;100.00;101351.72;5072096;28;20277;-75
2022/04/15 07:29:11;;;;;;;7.57;6.77;;;;;;;7.77;100.00;101346.03;5072087;28;20606;-74
2022/04/15 07:31:36;;;;;;;6.63;6.03;;;;;;;7.74;100.00;101332.97;5072234;28;20179;-74
2022/04/15 07:34:03;;;;;;;7.57;6.03;;;;;;;7.91;100.00;101329.97;5073691;28;20182;-74
2022/04/15 07:36:41;;;;;;;7.77;7.07;;;;;;;8.08;100.00;101346.84;5073364;28;20228;-73
2022/04/15 07:39:08;;;;;;;12.53;5.87;;;;;;;8.09;100.00;101351.19;5072886;28;20275;-73
2022/04/15 07:41:36;;;;;;;7.47;6.77;;;;;;;8.14;100.00;101345.78;5073265;28;20224;-74
2022/04/15 07:44:06;;;;;;;6.77;5.80;;;;;;;8.28;100.00;101349.56;5073280;28;20214;-73
2022/04/15 07:46:32;;;;;;;6.40;5.80;;;;;;;8.26;100.00;101348.22;5071725;28;20847;-73
2022/04/15 07:48:57;;;;;;;4.53;3.17;;;;;;;8.31;100.00;101359.91;5070727;28;20226;-72
2022/04/15 07:51:23;;;;;;;6.67;5.77;;;;;;;8.43;100.00;101356.13;5071230;28;20183;-72
2022/04/15 07:53:48;;;;;;;5.33;4.47;;;;;;;8.41;98.91;101361.03;5071333;28;20179;-72
2022/04/15 07:56:14;;;;;;;5.60;5.20;;;;;;;8.48;98.55;101364.28;5072550;28;20304;-73
2022/04/15 07:58:39;;;;;;;5.17;4.77;;;;;;;8.68;99.38;101371.59;5070998;28;20179;-72
2022/04/15 08:01:06;;;;;;;5.20;4.70;;;;;;;8.69;98.21;101367.81;5071067;28;20541;-72
2022/04/15 08:03:32;;;;;;;2.93;2.70;;;;;;;8.60;96.10;101370.25;5072305;28;20198;-72
2022/04/15 08:05:57;;;;;;;4.57;4.17;;;;;;;8.63;96.35;101375.16;5072303;28;20177;-73
2022/04/15 08:08:22;;;;;;;5.00;4.60;;;;;;;8.71;96.89;101376.50;5069957;28;20177;-72
2022/04/15 08:10:51;;;;;;;4.77;4.00;;;;;;;8.73;95.97;101382.50;5070857;28;20693;-73
2022/04/15 08:13:17;;;;;;;4.40;4.00;;;;;;;8.71;95.33;101380.06;5070981;28;20507;-74
2022/04/15 08:15:43;;;;;;;2.33;2.13;;;;;;;8.70;95.21;101386.59;5072193;28;20178;-72
2022/04/15 08:18:08;;;;;;;5.00;4.60;;;;;;;8.69;95.39;101387.69;5072080;28;20186;-72
2022/04/15 08:20:33;;;;;;;3.47;3.17;;;;;;;8.75;94.43;101392.03;5072215;28;20171;-72
2022/04/15 08:22:59;;;;;;;4.97;4.33;;;;;;;8.79;93.73;101397.72;5070798;28;20641;-73
2022/04/15 08:25:24;;;;;;;5.00;4.70;;;;;;;8.89;93.88;101403.97;5071977;28;20217;-73
2022/04/15 08:27:50;;;;;;;4.77;4.30;;;;;;;9.11;93.95;101398.19;5071651;28;20641;-73
2022/04/15 08:30:15;;;;;;;4.83;4.40;;;;;;;9.17;93.91;101401.72;5070515;28;20182;-73
2022/04/15 08:32:40;;;;;;;4.63;4.23;;;;;;;9.07;92.02;101408.00;5070529;28;20193;-72
2022/04/15 08:35:11;;;;;;;3.43;3.13;;;;;;;9.01;92.65;101408.31;5070483;28;20695;-73
2022/04/15 08:37:37;;;;;;;4.90;4.50;;;;;;;8.98;93.03;101411.59;5071632;28;20178;-73
2022/04/15 08:40:03;;;;;;;5.00;4.60;;;;;;;8.92;92.39;101408.88;5070073;28;20197;-72
2022/04/15 08:42:29;;;;;;;4.97;4.50;;;;;;;8.97;91.72;101410.78;5071629;28;20170;-72
2022/04/15 08:44:56;;;;;;;4.70;4.27;;;;;;;8.89;91.99;101416.78;5071522;28;20333;-72
2022/04/15 08:47:21;;;;;;;4.97;4.57;;;;;;;8.89;92.87;101425.78;5070025;28;20178;-72
2022/04/15 08:49:47;;;;;;;4.53;4.13;;;;;;;8.97;93.99;101423.56;5071709;28;20257;-73
2022/04/15 08:52:17;;;;;;;5.87;5.37;;;;;;;9.08;93.43;101436.09;5071613;28;20166;-73
2022/04/15 08:54:44;;;;;;;5.83;5.40;;;;;;;9.18;92.83;101425.16;5071562;28;20186;-72
2022/04/15 08:57:10;;;;;;;7.17;5.27;;;;;;;9.20;92.36;101422.97;5069851;28;20240;-73
2022/04/15 08:59:36;;;;;;;5.23;4.83;;;;;;;9.17;91.65;101428.97;5071214;28;20174;-73
2022/04/15 09:02:01;;;;;;;5.33;4.90;;;;;;;9.18;91.46;101433.34;5069890;28;20198;-73
2022/04/15 09:04:26;;;;;;;5.73;5.33;;;;;;;9.21;92.34;101427.31;5069655;28;20210;-72
2022/04/15 09:06:58;;;;;;;6.00;5.50;;;;;;;9.21;91.59;101430.03;5069731;28;20181;-73
2022/04/15 09:09:30;;;;;;;7.03;6.33;;;;;;;9.24;91.62;101434.94;5069760;28;20170;-73
2022/04/15 09:11:58;;;;;;;7.43;6.83;;;;;;;9.24;91.67;101441.22;5069804;28;20171;-73
2022/04/15 09:14:24;;;;;;;7.10;6.47;;;;;;;9.34;92.96;101445.81;5071020;28;20687;-74
2022/04/15 09:16:50;;;;;;;3.97;3.53;;;;;;;9.29;91.50;101440.41;5069509;28;20552;-72
2022/04/15 09:19:17;;;;;;;6.87;6.30;;;;;;;9.29;90.92;101451.31;5070660;28;20170;-74
2022/04/15 09:21:57;;;;;;;8.03;6.20;;;;;;;9.24;91.32;101454.84;5070779;28;20236;-73
2022/04/15 09:24:42;;;;;;;7.63;6.10;;;;;;;9.31;92.11;101448.28;5070804;28;20803;-73
2022/04/15 09:27:07;;;;;;;6.67;6.17;;;;;;;9.37;92.51;101455.34;5069197;28;20264;-73
2022/04/15 09:29:34;;;;;;;8.93;8.17;;;;;;;9.43;92.25;101460.53;5069422;28;20337;-73
2022/04/15 09:32:06;;;;;;;7.97;7.17;;;;;;;9.60;93.03;101453.91;5070706;28;20791;-74
2022/04/15 09:34:31;;;;;;;7.33;6.73;;;;;;;9.65;91.95;101459.31;5070891;28;20214;-73
2022/04/15 09:36:57;;;;;;;8.20;7.20;;;;;;;9.58;89.97;101458.81;5070445;28;20198;-73
2022/04/15 09:39:22;;;;;;;7.33;6.73;;;;;;;9.52;89.65;101458.81;5070331;28;20182;-73
2022/04/15 09:41:56;;;;;;;7.67;7.03;;;;;;;9.54;89.60;101464.00;5069383;28;20182;-73
2022/04/15 09:44:31;;;;;;;6.47;5.97;;;;;;;9.53;89.83;101473.28;5070530;28;20194;-75
2022/04/15 09:46:57;;;;;;;8.50;7.80;;;;;;;9.49;91.06;101467.56;5070435;28;20186;-73
2022/04/15 09:49:24;;;;;;;9.57;8.73;;;;;;;9.56;91.65;101471.94;5069131;28;20612;-72
2022/04/15 09:51:52;;;;;;;4.73;4.33;;;;;;;9.47;90.83;101469.78;5070469;28;20182;-72
2022/04/15 09:54:23;;;;;;;9.13;8.23;;;;;;;9.54;91.29;101469.47;5069247;28;20686;-73
2022/04/15 09:56:51;;;;;;;4.63;4.20;;;;;;;9.62;90.88;101479.00;5070293;28;20179;-73
2022/04/15 09:59:20;;;;;;;9.50;8.80;;;;;;;9.63;90.69;101481.44;5070133;28;20166;-72
2022/04/15 10:01:48;;;;;;;8.90;8.13;;;;;;;9.78;90.53;101477.81;5070516;28;20182;-73
2022/04/15 10:04:14;;;;;;;8.43;7.63;;;;;;;9.74;89.08;101485.75;5070320;28;20503;-73
2022/04/15 10:06:41;;;;;;;8.60;7.80;;;;;;;9.84;89.36;101477.53;5070212;28;20592;-73
2022/04/15 10:09:11;;;;;;;10.63;9.60;;;;;;;10.07;90.35;101478.75;5068864;28;20182;-73
2022/04/15 10:11:41;;;;;;;8.20;7.50;;;;;;;10.30;90.36;101485.47;5068772;28;20175;-72
2022/04/15 10:14:08;;;;;;;9.97;9.10;;;;;;;10.26;88.32;101489.03;5070263;28;20531;-74
2022/04/15 10:16:35;;;;;;;10.43;9.00;;;;;;;10.43;87.08;101487.56;5068918;28;20235;-73
2022/04/15 10:19:01;;;;;;;8.47;7.67;;;;;;;10.48;85.69;101483.97;5068774;28;20220;-72
2022/04/15 10:21:30;;;;;;;6.90;6.17;;;;;;;10.59;86.38;101481.97;5070131;28;20177;-72
2022/04/15 10:23:56;;;;;;;8.50;7.70;;;;;;;10.61;85.81;101480.59;5070127;28;20201;-73
2022/04/15 10:26:23;;;;;;;9.37;8.37;;;;;;;10.65;84.82;101486.28;5068693;28;20178;-73
2022/04/15 10:28:48;;;;;;;7.43;6.73;;;;;;;10.70;85.07;101487.09;5070142;28;20208;-73
2022/04/15 10:31:16;;;;;;;4.50;4.10;;;;;;;10.65;84.68;101487.09;5070084;28;20171;-73
2022/04/15 10:33:43;;;;;;;9.47;4.87;;;;;;;10.53;84.31;101483.91;5072819;28;20170;-73
2022/04/15 10:36:23;;;;;;;9.20;8.37;;;;;;;10.43;85.51;101484.03;5074145;28;20174;-75
2022/04/15 10:39:03;;;;;;;6.07;5.57;;;;;;;10.47;86.20;101485.06;5072034;28;20181;-72
2022/04/15 10:41:50;;;;;;;7.83;7.13;;;;;;;10.65;86.89;101480.81;5072602;28;20182;-73
2022/04/15 10:44:40;;;;;;;8.17;7.47;;;;;;;10.65;87.05;101491.75;5074104;28;20355;-73
2022/04/15 10:47:19;;;;;;;8.87;8.07;;;;;;;10.72;87.55;101495.81;5074034;28;20265;-73
2022/04/15 10:50:03;;;;;;;9.33;8.43;;;;;;;10.88;86.65;101498.41;5073496;28;20177;-73
2022/04/15 10:52:30;;;;;;;4.57;4.07;;;;;;;10.92;85.48;101488.50;5071170;28;20643;-72
2022/04/15 10:54:59;;;;;;;8.00;7.27;;;;;;;10.83;83.46;101490.22;5074189;28;20214;-73
2022/04/15 10:57:34;;;;;;;7.97;7.23;;;;;;;11.02;84.33;101488.44;5072651;28;20661;-72
2022/04/15 11:02:50;;;;;;;8.63;7.30;;;;;;;11.14;83.20;101490.75;5074363;28;20189;-73
2022/04/15 11:05:33;;;;;;;6.00;5.50;;;;;;;11.17;83.74;101481.97;5074000;28;20213;-72
2022/04/15 11:08:09;;;;;;;7.90;7.10;;;;;;;11.35;85.03;101491.34;5072546;28;20178;-72
2022/04/15 11:10:50;;;;;;;5.47;4.53;;;;;;;11.39;83.61;101479.53;5073913;28;20248;-73
2022/04/15 11:13:32;;;;;;;7.60;6.90;;;;;;;11.57;83.64;101494.38;5072546;28;20190;-75
2022/04/15 11:16:01;;;;;;;7.37;6.77;;;;;;;11.72;83.71;101494.22;5072379;28;20557;-72
2022/04/15 11:18:50;;;;;;;7.00;6.30;;;;;;;11.39;82.07;101487.75;5072355;28;20528;-72
2022/04/15 11:21:23;;;;;;;7.50;6.90;;;;;;;11.54;83.34;101490.28;5072302;28;20273;-72
2022/04/15 11:23:51;;;;;;;6.60;6.00;;;;;;;11.45;82.28;101486.59;5072310;28;20198;-72